createdAt,value
2023-05-20T00:00:19.460Z,15.11
2023-05-20T00:01:19.561Z,15.14
2023-05-20T00:02:19.463Z,15.10
2023-05-20T00:03:20.780Z,15.09
2023-05-20T00:04:19.407Z,15.10
2023-05-20T00:05:19.442Z,15.09
2023-05-20T00:06:19.371Z,15.04
2023-05-20T00:07:19.324Z,15.06
2023-05-20T00:08:19.399Z,15.06
2023-05-20T00:09:20.339Z,15.03
2023-05-20T00:10:19.382Z,15.02
2023-05-20T00:11:19.365Z,14.97
2023-05-20T00:12:19.262Z,14.94
2023-05-20T00:13:19.775Z,14.91
2023-05-20T00:14:20.309Z,14.89
2023-05-20T00:15:19.247Z,14.89
2023-05-20T00:16:19.348Z,14.89
2023-05-20T00:17:19.201Z,14.89
2023-05-20T00:18:19.187Z,14.88
2023-05-20T00:19:20.337Z,14.86
2023-05-20T00:20:19.185Z,14.86
2023-05-20T00:21:19.223Z,14.86
2023-05-20T00:22:19.265Z,14.85
2023-05-20T00:23:19.315Z,14.84
2023-05-20T00:24:20.125Z,14.84
2023-05-20T00:25:19.246Z,14.81
2023-05-20T00:26:19.207Z,14.78
2023-05-20T00:27:19.145Z,14.77
2023-05-20T00:28:19.135Z,14.72
2023-05-20T00:29:20.020Z,14.73
2023-05-20T00:30:19.109Z,14.73
2023-05-20T00:31:40.300Z,14.77
2023-05-20T00:32:19.246Z,14.72
2023-05-20T00:33:19.241Z,14.72
2023-05-20T00:34:19.098Z,14.70
2023-05-20T00:35:19.938Z,14.72
2023-05-20T00:36:19.056Z,14.72
2023-05-20T00:37:18.917Z,14.70
2023-05-20T00:38:19.062Z,14.70
2023-05-20T00:39:18.958Z,14.69
2023-05-20T00:40:19.816Z,14.68
2023-05-20T00:41:18.956Z,14.65
2023-05-20T00:42:18.904Z,14.63
2023-05-20T00:43:19.160Z,14.59
2023-05-20T00:44:18.873Z,14.54
2023-05-20T00:45:19.775Z,14.51
2023-05-20T00:46:18.915Z,14.48
2023-05-20T00:47:18.829Z,14.47
2023-05-20T00:48:18.901Z,14.47
2023-05-20T00:49:18.812Z,14.43
2023-05-20T00:50:19.813Z,14.43
2023-05-20T00:51:18.787Z,14.41
2023-05-20T00:52:19.555Z,14.37
2023-05-20T00:53:18.815Z,14.35
2023-05-20T00:54:18.795Z,14.33
2023-05-20T00:55:18.719Z,14.32
2023-05-20T00:56:19.693Z,14.30
2023-05-20T00:57:18.754Z,14.32
2023-05-20T00:58:18.740Z,14.30
2023-05-20T00:59:18.717Z,14.29
2023-05-20T01:00:18.719Z,14.29
2023-05-20T01:01:19.639Z,14.29
2023-05-20T01:02:18.698Z,14.30
2023-05-20T01:03:18.935Z,14.32
2023-05-20T01:04:18.697Z,14.30
2023-05-20T01:05:18.714Z,14.29
2023-05-20T01:06:18.679Z,14.29
2023-05-20T01:07:19.613Z,14.28
2023-05-20T01:08:18.595Z,14.28
2023-05-20T01:09:18.532Z,14.28
2023-05-20T01:10:18.710Z,14.28
2023-05-20T01:11:18.540Z,14.26
2023-05-20T01:12:19.475Z,14.26
2023-05-20T01:13:18.567Z,14.25
2023-05-20T01:14:18.569Z,14.26
2023-05-20T01:15:18.472Z,14.25
2023-05-20T01:16:18.558Z,14.22
2023-05-20T01:17:18.736Z,14.18
2023-05-20T01:18:19.408Z,14.17
2023-05-20T01:19:18.462Z,14.17
2023-05-20T01:20:18.472Z,14.15
2023-05-20T01:21:18.503Z,14.14
2023-05-20T01:22:18.482Z,14.14
2023-05-20T01:23:20.225Z,14.14
2023-05-20T01:24:18.390Z,14.11
2023-05-20T01:25:18.331Z,14.10
2023-05-20T01:26:18.340Z,14.08
2023-05-20T01:27:18.556Z,14.05
2023-05-20T01:28:18.541Z,14.04
2023-05-20T01:29:19.393Z,14.05
2023-05-20T01:30:18.293Z,14.04
2023-05-20T01:31:18.358Z,14.03
2023-05-20T01:32:18.456Z,14.03
2023-05-20T01:33:18.282Z,14.05
2023-05-20T01:34:18.262Z,14.07
2023-05-20T01:35:19.192Z,14.08
2023-05-20T01:36:18.356Z,14.07
2023-05-20T01:37:18.327Z,14.10
2023-05-20T01:38:18.335Z,14.10
2023-05-20T01:39:18.180Z,14.07
2023-05-20T01:40:19.137Z,14.05
2023-05-20T01:41:18.121Z,14.05
2023-05-20T01:42:18.196Z,14.04
2023-05-20T01:43:19.124Z,14.03
2023-05-20T01:44:18.097Z,14.03
2023-05-20T01:45:18.152Z,13.99
2023-05-20T01:46:19.105Z,14.00
2023-05-20T01:47:18.188Z,13.97
2023-05-20T01:48:18.740Z,13.96
2023-05-20T01:49:18.023Z,13.96
2023-05-20T01:50:18.318Z,13.93
2023-05-20T01:51:19.042Z,13.93
2023-05-20T01:52:18.082Z,13.93
2023-05-20T01:53:18.066Z,13.95
2023-05-20T01:54:17.997Z,13.95
2023-05-20T01:55:18.027Z,13.96
2023-05-20T01:56:18.066Z,13.96
2023-05-20T01:57:18.869Z,13.96
2023-05-20T01:58:17.989Z,13.96
2023-05-20T01:59:17.947Z,13.93
2023-05-20T02:00:18.674Z,13.92
2023-05-20T02:01:17.972Z,13.90
2023-05-20T02:02:18.859Z,13.90
2023-05-20T02:03:17.953Z,13.87
2023-05-20T02:04:17.804Z,13.85
2023-05-20T02:05:17.932Z,13.83
2023-05-20T02:06:18.156Z,13.83
2023-05-20T02:07:17.859Z,13.81
2023-05-20T02:08:18.748Z,13.81
2023-05-20T02:09:17.789Z,13.79
2023-05-20T02:10:17.757Z,13.77
2023-05-20T02:11:17.850Z,13.77
2023-05-20T02:12:17.902Z,13.75
2023-05-20T02:13:18.724Z,13.75
2023-05-20T02:14:17.891Z,13.74
2023-05-20T02:15:17.762Z,13.71
2023-05-20T02:16:17.829Z,13.70
2023-05-20T02:17:17.782Z,13.70
2023-05-20T02:18:17.696Z,13.68
2023-05-20T02:19:18.718Z,13.68
2023-05-20T02:20:17.667Z,13.67
2023-05-20T02:21:17.986Z,13.68
2023-05-20T02:22:17.623Z,13.70
2023-05-20T02:23:17.668Z,13.70
2023-05-20T02:24:19.077Z,13.70
2023-05-20T02:25:18.506Z,13.70
2023-05-20T02:26:17.600Z,13.68
2023-05-20T02:27:17.558Z,13.68
2023-05-20T02:28:17.593Z,13.67
2023-05-20T02:29:17.512Z,13.67
2023-05-20T02:30:17.512Z,13.70
2023-05-20T02:31:18.483Z,13.70
2023-05-20T02:32:17.566Z,13.70
2023-05-20T02:33:17.649Z,13.71
2023-05-20T02:34:17.667Z,13.71
2023-05-20T02:35:18.274Z,13.74
2023-05-20T02:36:17.459Z,13.72
2023-05-20T02:37:18.378Z,13.72
2023-05-20T02:38:17.470Z,13.74
2023-05-20T02:39:17.450Z,13.72
2023-05-20T02:40:17.506Z,13.71
2023-05-20T02:41:17.462Z,13.70
2023-05-20T02:42:18.375Z,13.68
2023-05-20T02:43:17.659Z,13.65
2023-05-20T02:45:14.887Z,13.63
2023-05-20T02:46:14.883Z,13.62
2023-05-20T02:47:14.886Z,13.63
2023-05-20T02:48:15.878Z,13.62
2023-05-20T02:49:14.852Z,13.63
2023-05-20T02:50:14.851Z,13.65
2023-05-20T02:51:14.850Z,13.68
2023-05-20T02:52:14.789Z,13.71
2023-05-20T02:53:16.377Z,13.71
2023-05-20T02:54:14.780Z,13.72
2023-05-20T02:55:14.792Z,13.72
2023-05-20T02:56:14.772Z,13.75
2023-05-20T02:57:14.729Z,13.75
2023-05-20T02:58:15.651Z,13.78
2023-05-20T02:59:14.682Z,13.79
2023-05-20T03:00:14.683Z,13.79
2023-05-20T03:01:14.723Z,13.81
2023-05-20T03:02:14.715Z,13.85
2023-05-20T03:03:14.661Z,13.85
2023-05-20T03:04:15.575Z,13.85
2023-05-20T03:05:14.642Z,13.86
2023-05-20T03:06:14.722Z,13.86
2023-05-20T03:07:14.602Z,13.87
2023-05-20T03:08:14.610Z,13.89
2023-05-20T03:09:14.568Z,13.90
2023-05-20T03:10:15.607Z,13.93
2023-05-20T03:11:14.543Z,13.95
2023-05-20T03:12:14.487Z,13.97
2023-05-20T03:13:14.501Z,14.00
2023-05-20T03:14:14.581Z,13.99
2023-05-20T03:15:14.490Z,14.00
2023-05-20T03:16:15.446Z,14.00
2023-05-20T03:17:14.464Z,14.00
2023-05-20T03:18:14.422Z,14.00
2023-05-20T03:19:14.492Z,13.97
2023-05-20T03:20:14.409Z,13.97
2023-05-20T03:21:14.427Z,13.95
2023-05-20T03:22:15.306Z,13.95
2023-05-20T03:23:14.379Z,13.93
2023-05-20T03:24:14.342Z,13.92
2023-05-20T03:25:14.361Z,13.89
2023-05-20T03:26:14.365Z,13.89
2023-05-20T03:27:15.246Z,13.89
2023-05-20T03:28:14.289Z,13.90
2023-05-20T03:29:14.290Z,13.92
2023-05-20T03:30:14.284Z,13.92
2023-05-20T03:31:14.280Z,13.93
2023-05-20T03:32:15.191Z,13.95
2023-05-20T03:33:14.237Z,13.95
2023-05-20T03:34:14.225Z,13.97
2023-05-20T03:35:14.227Z,13.96
2023-05-20T03:36:14.242Z,13.95
2023-05-20T03:37:15.263Z,13.96
2023-05-20T03:38:14.165Z,13.93
2023-05-20T03:39:14.154Z,13.95
2023-05-20T03:40:14.140Z,13.96
2023-05-20T03:41:14.188Z,13.96
2023-05-20T03:42:15.032Z,13.97
2023-05-20T03:43:14.099Z,13.96
2023-05-20T03:44:14.102Z,13.97
2023-05-20T03:45:14.089Z,13.99
2023-05-20T03:46:14.099Z,13.99
2023-05-20T03:47:14.966Z,13.99
2023-05-20T03:48:14.054Z,13.99
2023-05-20T03:49:14.020Z,14.00
2023-05-20T03:50:14.056Z,13.99
2023-05-20T03:51:14.053Z,13.97
2023-05-20T03:52:14.884Z,13.96
2023-05-20T03:53:13.988Z,13.97
2023-05-20T03:54:13.973Z,13.96
2023-05-20T03:55:14.001Z,13.96
2023-05-20T03:56:13.972Z,13.96
2023-05-20T03:57:14.866Z,13.96
2023-05-20T03:58:13.953Z,13.97
2023-05-20T03:59:13.876Z,13.96
2023-05-20T04:00:13.964Z,13.95
2023-05-20T04:01:13.905Z,13.95
2023-05-20T04:02:14.872Z,13.93
2023-05-20T04:03:13.953Z,13.93
2023-05-20T04:04:13.886Z,13.93
2023-05-20T04:05:13.812Z,13.92
2023-05-20T04:06:13.815Z,13.92
2023-05-20T04:07:13.824Z,13.92
2023-05-20T04:08:14.684Z,13.92
2023-05-20T04:09:13.734Z,13.92
2023-05-20T04:10:13.744Z,13.93
2023-05-20T04:11:13.737Z,13.90
2023-05-20T04:12:13.769Z,13.93
2023-05-20T04:13:13.768Z,13.92
2023-05-20T04:14:14.610Z,13.92
2023-05-20T04:15:13.699Z,13.92
2023-05-20T04:16:13.739Z,13.92
2023-05-20T04:17:13.652Z,13.92
2023-05-20T04:18:13.729Z,13.92
2023-05-20T04:19:13.655Z,13.92
2023-05-20T04:20:14.560Z,13.92
2023-05-20T04:21:13.621Z,13.90
2023-05-20T04:22:13.573Z,13.92
2023-05-20T04:23:13.621Z,13.90
2023-05-20T04:24:13.554Z,13.93
2023-05-20T04:25:13.567Z,13.93
2023-05-20T04:26:14.519Z,13.96
2023-05-20T04:27:13.521Z,13.95
2023-05-20T04:28:13.577Z,13.96
2023-05-20T04:29:13.497Z,13.96
2023-05-20T04:30:13.488Z,13.96
2023-05-20T04:31:14.599Z,13.96
2023-05-20T04:32:13.600Z,13.95
2023-05-20T04:33:13.518Z,13.95
2023-05-20T04:34:13.442Z,13.95
2023-05-20T04:35:13.481Z,13.95
2023-05-20T04:36:14.395Z,13.95
2023-05-20T04:37:13.428Z,13.96
2023-05-20T04:38:13.366Z,13.96
2023-05-20T04:39:14.029Z,13.96
2023-05-20T04:40:13.372Z,13.96
2023-05-20T04:41:13.357Z,13.95
2023-05-20T04:42:14.268Z,13.95
2023-05-20T04:43:13.401Z,13.95
2023-05-20T04:44:13.379Z,13.96
2023-05-20T04:45:13.296Z,13.95
2023-05-20T04:46:13.332Z,13.95
2023-05-20T04:47:13.247Z,13.95
2023-05-20T04:48:14.207Z,13.97
2023-05-20T04:49:13.260Z,13.97
2023-05-20T04:50:13.219Z,13.97
2023-05-20T04:51:13.209Z,13.96
2023-05-20T04:52:13.176Z,13.96
2023-05-20T04:53:14.190Z,13.95
2023-05-20T04:54:13.267Z,13.95
2023-05-20T04:55:13.178Z,13.95
2023-05-20T04:56:13.147Z,13.95
2023-05-20T04:57:13.176Z,13.96
2023-05-20T04:58:13.167Z,13.95
2023-05-20T04:59:14.134Z,13.95
2023-05-20T05:00:13.101Z,13.96
2023-05-20T05:01:13.220Z,13.97
2023-05-20T05:02:13.044Z,13.99
2023-05-20T05:03:13.090Z,13.99
2023-05-20T05:04:13.180Z,14.04
2023-05-20T05:05:13.997Z,14.04
2023-05-20T05:06:13.100Z,14.04
2023-05-20T05:07:13.020Z,14.04
2023-05-20T05:08:12.964Z,14.04
2023-05-20T05:09:13.001Z,14.03
2023-05-20T05:10:12.968Z,14.00
2023-05-20T05:11:13.960Z,14.03
2023-05-20T05:12:13.049Z,14.03
2023-05-20T05:13:12.921Z,14.04
2023-05-20T05:14:12.929Z,14.03
2023-05-20T05:15:13.081Z,14.03
2023-05-20T05:16:13.868Z,14.04
2023-05-20T05:17:12.882Z,14.04
2023-05-20T05:18:12.824Z,14.03
2023-05-20T05:19:12.928Z,14.04
2023-05-20T05:20:12.819Z,14.04
2023-05-20T05:21:19.124Z,14.07
2023-05-20T05:22:12.833Z,14.10
2023-05-20T05:23:12.781Z,14.10
2023-05-20T05:24:12.782Z,14.10
2023-05-20T05:25:12.752Z,14.10
2023-05-20T05:26:12.863Z,14.11
2023-05-20T05:27:13.786Z,14.10
2023-05-20T05:28:12.760Z,14.10
2023-05-20T05:29:12.749Z,14.10
2023-05-20T05:30:12.694Z,14.11
2023-05-20T05:31:12.692Z,14.12
2023-05-20T05:32:13.673Z,14.12
2023-05-20T05:33:12.688Z,14.15
2023-05-20T05:34:12.645Z,14.15
2023-05-20T05:35:12.658Z,14.15
2023-05-20T05:36:12.653Z,14.15
2023-05-20T05:37:13.600Z,14.17
2023-05-20T05:38:12.694Z,14.17
2023-05-20T05:39:12.569Z,14.17
2023-05-20T05:40:12.569Z,14.18
2023-05-20T05:41:12.565Z,14.20
2023-05-20T05:42:13.489Z,14.20
2023-05-20T05:43:12.561Z,14.18
2023-05-20T05:44:12.508Z,14.20
2023-05-20T05:45:12.508Z,14.17
2023-05-20T05:46:12.537Z,14.17
2023-05-20T05:47:12.608Z,14.18
2023-05-20T05:48:13.436Z,14.18
2023-05-20T05:49:12.457Z,14.20
2023-05-20T05:50:12.418Z,14.23
2023-05-20T05:51:12.425Z,14.23
2023-05-20T05:52:12.436Z,14.26
2023-05-20T05:53:13.356Z,14.26
2023-05-20T05:54:12.372Z,14.29
2023-05-20T05:55:12.372Z,14.29
2023-05-20T05:56:12.357Z,14.29
2023-05-20T05:57:12.367Z,14.29
2023-05-20T05:58:12.317Z,14.32
2023-05-20T05:59:13.357Z,14.33
2023-05-20T06:00:12.337Z,14.36
2023-05-20T06:01:12.324Z,14.37
2023-05-20T06:02:12.330Z,14.40
2023-05-20T06:03:12.363Z,14.41
2023-05-20T06:04:13.203Z,14.43
2023-05-20T06:05:12.237Z,14.44
2023-05-20T06:06:12.266Z,14.45
2023-05-20T06:07:12.237Z,14.48
2023-05-20T06:08:12.184Z,14.51
2023-05-20T06:09:12.215Z,14.54
2023-05-20T06:10:13.061Z,14.54
2023-05-20T06:11:12.236Z,14.53
2023-05-20T06:12:14.010Z,14.54
2023-05-20T06:13:12.108Z,14.54
2023-05-20T06:14:12.232Z,14.51
2023-05-20T06:15:12.066Z,14.53
2023-05-20T06:16:13.143Z,14.53
2023-05-20T06:17:12.090Z,14.53
2023-05-20T06:18:12.052Z,14.54
2023-05-20T06:19:12.061Z,14.54
2023-05-20T06:20:12.064Z,14.55
2023-05-20T06:21:13.029Z,14.58
2023-05-20T06:22:12.675Z,14.60
2023-05-20T06:23:12.013Z,14.60
2023-05-20T06:24:11.955Z,14.59
2023-05-20T06:25:11.940Z,14.60
2023-05-20T06:26:11.969Z,14.59
2023-05-20T06:27:12.893Z,14.59
2023-05-20T06:28:11.889Z,14.58
2023-05-20T06:29:13.166Z,14.59
2023-05-20T06:30:11.895Z,14.58
2023-05-20T06:31:11.913Z,14.55
2023-05-20T06:32:11.867Z,14.55
2023-05-20T06:33:12.835Z,14.55
2023-05-20T06:34:11.852Z,14.54
2023-05-20T06:35:11.867Z,14.53
2023-05-20T06:36:11.945Z,14.53
2023-05-20T06:37:11.822Z,14.53
2023-05-20T06:38:12.759Z,14.54
2023-05-20T06:39:11.780Z,14.55
2023-05-20T06:40:11.794Z,14.58
2023-05-20T06:41:11.761Z,14.60
2023-05-20T06:42:11.759Z,14.60
2023-05-20T06:43:12.698Z,14.62
2023-05-20T06:44:11.765Z,14.63
2023-05-20T06:45:11.701Z,14.66
2023-05-20T06:46:11.734Z,14.68
2023-05-20T06:47:11.660Z,14.66
2023-05-20T06:48:11.651Z,14.66
2023-05-20T06:49:12.622Z,14.63
2023-05-20T06:50:11.620Z,14.60
2023-05-20T06:51:11.697Z,14.59
2023-05-20T06:52:11.613Z,14.59
2023-05-20T06:53:11.594Z,14.62
2023-05-20T06:54:12.512Z,14.62
2023-05-20T06:55:11.595Z,14.63
2023-05-20T06:56:11.546Z,14.65
2023-05-20T06:57:11.538Z,14.69
2023-05-20T06:58:11.565Z,14.70
2023-05-20T06:59:11.566Z,14.72
2023-05-20T07:00:12.410Z,14.77
2023-05-20T07:01:11.509Z,14.79
2023-05-20T07:02:11.527Z,14.82
2023-05-20T07:03:11.718Z,14.86
2023-05-20T07:04:11.536Z,14.91
2023-05-20T07:05:11.417Z,14.94
2023-05-20T07:06:12.339Z,14.99
2023-05-20T07:07:11.412Z,14.99
2023-05-20T07:08:11.386Z,15.02
2023-05-20T07:09:11.386Z,15.03
2023-05-20T07:10:11.365Z,15.02
2023-05-20T07:11:11.396Z,15.02
2023-05-20T07:12:12.346Z,15.04
2023-05-20T07:13:11.325Z,15.06
2023-05-20T07:14:11.298Z,15.09
2023-05-20T07:15:11.306Z,15.11
2023-05-20T07:16:11.294Z,15.14
2023-05-20T07:17:12.217Z,15.17
2023-05-20T07:18:11.305Z,15.19
2023-05-20T07:19:11.325Z,15.21
2023-05-20T07:20:11.257Z,15.22
2023-05-20T07:21:11.220Z,15.24
2023-05-20T07:22:12.138Z,15.25
2023-05-20T07:23:11.696Z,15.28
2023-05-20T07:24:11.197Z,15.27
2023-05-20T07:25:11.185Z,15.28
2023-05-20T07:26:11.179Z,15.28
2023-05-20T07:27:11.847Z,15.28
2023-05-20T07:28:12.076Z,15.29
2023-05-20T07:29:11.180Z,15.35
2023-05-20T07:30:11.133Z,15.37
2023-05-20T07:31:11.216Z,15.40
2023-05-20T07:32:11.107Z,15.42
2023-05-20T07:33:12.029Z,15.46
2023-05-20T07:34:11.056Z,15.49
2023-05-20T07:35:11.078Z,15.52
2023-05-20T07:36:11.471Z,15.52
2023-05-20T07:37:11.027Z,15.57
2023-05-20T07:38:11.010Z,15.59
2023-05-20T07:39:14.368Z,15.62
2023-05-20T07:40:11.033Z,15.65
2023-05-20T07:41:10.957Z,15.70
2023-05-20T07:42:10.989Z,15.72
2023-05-20T07:43:10.925Z,15.73
2023-05-20T07:44:10.916Z,15.73
2023-05-20T07:45:11.911Z,15.76
2023-05-20T07:46:10.998Z,15.77
2023-05-20T07:47:10.906Z,15.79
2023-05-20T07:48:11.037Z,15.83
2023-05-20T07:49:10.908Z,15.86
2023-05-20T07:50:10.851Z,15.88
2023-05-20T07:51:11.822Z,15.92
2023-05-20T07:52:10.833Z,15.97
2023-05-20T07:53:10.853Z,16.00
2023-05-20T07:54:10.794Z,16.02
2023-05-20T07:55:10.796Z,16.05
2023-05-20T07:56:11.688Z,16.10
2023-05-20T07:57:10.756Z,16.12
2023-05-20T07:58:10.777Z,16.15
2023-05-20T07:59:10.727Z,16.16
2023-05-20T08:00:10.785Z,16.20
2023-05-20T08:01:10.769Z,16.23
2023-05-20T08:02:11.733Z,16.26
2023-05-20T08:03:10.894Z,16.33
2023-05-20T08:04:10.827Z,16.39
2023-05-20T08:05:10.667Z,16.46
2023-05-20T08:06:10.650Z,16.51
2023-05-20T08:07:10.668Z,16.54
2023-05-20T08:08:11.577Z,16.57
2023-05-20T08:09:10.614Z,16.61
2023-05-20T08:10:10.640Z,16.61
2023-05-20T08:11:10.599Z,16.64
2023-05-20T08:12:10.556Z,16.61
2023-05-20T08:13:11.486Z,16.65
2023-05-20T08:14:10.573Z,16.69
2023-05-20T08:15:10.553Z,16.71
2023-05-20T08:16:10.544Z,16.72
2023-05-20T08:17:10.624Z,16.76
2023-05-20T08:18:11.457Z,16.79
2023-05-20T08:19:10.598Z,16.81
2023-05-20T08:20:10.584Z,16.83
2023-05-20T08:21:10.516Z,16.84
2023-05-20T08:22:10.427Z,16.84
2023-05-20T08:23:10.482Z,16.86
2023-05-20T08:24:11.378Z,16.86
2023-05-20T08:25:10.454Z,16.87
2023-05-20T08:26:10.429Z,16.89
2023-05-20T08:27:10.363Z,16.89
2023-05-20T08:28:10.445Z,16.91
2023-05-20T08:29:10.377Z,16.97
2023-05-20T08:30:11.299Z,17.04
2023-05-20T08:31:10.355Z,17.06
2023-05-20T08:32:10.335Z,17.14
2023-05-20T08:33:11.284Z,17.19
2023-05-20T08:34:10.299Z,17.24
2023-05-20T08:35:10.311Z,17.30
2023-05-20T08:36:11.201Z,17.38
2023-05-20T08:37:10.216Z,17.41
2023-05-20T08:38:10.248Z,17.45
2023-05-20T08:39:10.194Z,17.49
2023-05-20T08:40:10.366Z,17.54
2023-05-20T08:41:10.202Z,17.56
2023-05-20T08:42:11.157Z,17.60
2023-05-20T08:43:10.165Z,17.67
2023-05-20T08:44:10.167Z,17.71
2023-05-20T08:45:10.176Z,17.72
2023-05-20T08:46:10.166Z,17.74
2023-05-20T08:47:10.134Z,17.71
2023-05-20T08:48:11.125Z,17.71
2023-05-20T08:49:10.110Z,17.68
2023-05-20T08:50:10.105Z,17.68
2023-05-20T08:51:10.082Z,17.67
2023-05-20T08:52:10.082Z,17.63
2023-05-20T08:53:10.027Z,17.59
2023-05-20T08:54:10.953Z,17.60
2023-05-20T08:55:10.047Z,17.63
2023-05-20T08:56:10.100Z,17.65
2023-05-20T08:57:10.005Z,17.68
2023-05-20T08:58:09.976Z,17.70
2023-05-20T08:59:10.939Z,17.74
2023-05-20T09:00:10.035Z,17.72
2023-05-20T09:01:09.925Z,17.71
2023-05-20T09:02:09.965Z,17.72
2023-05-20T09:03:09.937Z,17.70
2023-05-20T09:04:10.870Z,17.65
2023-05-20T09:05:09.975Z,17.60
2023-05-20T09:06:09.922Z,17.59
2023-05-20T09:07:09.868Z,17.52
2023-05-20T09:08:09.894Z,17.41
2023-05-20T09:09:10.830Z,17.31
2023-05-20T09:10:09.838Z,17.29
2023-05-20T09:11:09.845Z,17.24
2023-05-20T09:12:09.782Z,17.23
2023-05-20T09:13:09.782Z,17.19
2023-05-20T09:14:09.767Z,17.15
2023-05-20T09:15:10.731Z,17.12
2023-05-20T09:16:09.775Z,17.08
2023-05-20T09:17:09.732Z,17.08
2023-05-20T09:18:09.755Z,17.09
2023-05-20T09:19:09.802Z,17.09
2023-05-20T09:20:10.623Z,17.06
2023-05-20T09:21:09.712Z,17.09
2023-05-20T09:22:09.677Z,17.08
2023-05-20T09:23:09.682Z,17.12
2023-05-20T09:24:09.676Z,17.15
2023-05-20T09:25:10.586Z,17.22
2023-05-20T09:26:09.626Z,17.24
2023-05-20T09:27:09.657Z,17.29
2023-05-20T09:28:09.614Z,17.30
2023-05-20T09:29:09.580Z,17.31
2023-05-20T09:30:10.571Z,17.34
2023-05-20T09:31:09.627Z,17.39
2023-05-20T09:32:09.586Z,17.42
2023-05-20T09:33:09.604Z,17.42
2023-05-20T09:34:09.560Z,17.44
2023-05-20T09:35:09.491Z,17.42
2023-05-20T09:36:10.408Z,17.44
2023-05-20T09:37:09.517Z,17.42
2023-05-20T09:38:09.438Z,17.42
2023-05-20T09:39:09.459Z,17.44
2023-05-20T09:40:09.425Z,17.42
2023-05-20T09:41:10.357Z,17.44
2023-05-20T09:42:09.404Z,17.46
2023-05-20T09:43:09.426Z,17.51
2023-05-20T09:44:09.405Z,17.51
2023-05-20T09:45:09.369Z,17.51
2023-05-20T09:46:09.508Z,17.52
2023-05-20T09:47:10.426Z,17.49
2023-05-20T09:48:09.403Z,17.51
2023-05-20T09:49:09.402Z,17.49
2023-05-20T09:50:09.364Z,17.44
2023-05-20T09:51:09.355Z,17.44
2023-05-20T09:52:09.349Z,17.42
2023-05-20T09:53:10.240Z,17.42
2023-05-20T09:54:09.354Z,17.41
2023-05-20T09:55:09.302Z,17.41
2023-05-20T09:56:09.244Z,17.41
2023-05-20T09:57:09.309Z,17.41
2023-05-20T09:58:09.203Z,17.38
2023-05-20T09:59:10.159Z,17.42
2023-05-20T10:00:09.202Z,17.48
2023-05-20T10:01:09.217Z,17.54
2023-05-20T10:02:09.170Z,17.60
2023-05-20T10:03:09.326Z,17.65
2023-05-20T10:04:10.072Z,17.74
2023-05-20T10:05:09.178Z,17.76
2023-05-20T10:06:09.115Z,17.74
2023-05-20T10:07:09.141Z,17.71
2023-05-20T10:08:09.884Z,17.71
2023-05-20T10:09:10.018Z,17.71
2023-05-20T10:10:09.073Z,17.71
2023-05-20T10:11:09.732Z,17.70
2023-05-20T10:12:09.059Z,17.67
2023-05-20T10:13:09.041Z,17.64
2023-05-20T10:14:09.036Z,17.57
2023-05-20T10:15:10.062Z,17.57
2023-05-20T10:16:09.188Z,17.54
2023-05-20T10:17:09.083Z,17.51
2023-05-20T10:18:09.064Z,17.48
2023-05-20T10:19:09.101Z,17.42
2023-05-20T10:20:08.970Z,17.42
2023-05-20T10:21:09.945Z,17.48
2023-05-20T10:22:09.066Z,17.57
2023-05-20T10:23:08.951Z,17.65
2023-05-20T10:24:08.964Z,17.72
2023-05-20T10:25:08.880Z,17.82
2023-05-20T10:26:09.853Z,17.87
2023-05-20T10:27:08.931Z,17.95
2023-05-20T10:28:08.902Z,18.01
2023-05-20T10:29:10.920Z,18.04
2023-05-20T10:30:08.877Z,18.10
2023-05-20T10:31:09.789Z,18.19
2023-05-20T10:32:08.777Z,18.22
2023-05-20T10:33:09.110Z,18.26
2023-05-20T10:34:08.805Z,18.29
2023-05-20T10:35:08.786Z,18.26
2023-05-20T10:36:08.737Z,18.25
2023-05-20T10:37:09.663Z,18.20
2023-05-20T10:38:08.715Z,18.20
2023-05-20T10:39:08.656Z,18.20
2023-05-20T10:40:08.742Z,18.20
2023-05-20T10:41:08.670Z,18.19
2023-05-20T10:42:08.655Z,18.23
2023-05-20T10:43:09.622Z,18.28
2023-05-20T10:44:08.649Z,18.33
2023-05-20T10:45:08.646Z,18.38
2023-05-20T10:46:17.076Z,18.45
2023-05-20T10:47:24.561Z,18.58
2023-05-20T10:48:10.190Z,18.80
2023-05-20T10:49:09.614Z,19.39
2023-05-20T10:50:08.557Z,19.51
2023-05-20T10:51:08.530Z,19.66
2023-05-20T10:52:08.513Z,19.99
2023-05-20T10:53:15.666Z,20.24
2023-05-20T10:54:09.979Z,20.29
2023-05-20T10:55:09.428Z,20.36
2023-05-20T10:56:08.471Z,20.40
2023-05-20T10:57:08.479Z,20.58
2023-05-20T10:58:08.449Z,20.84
2023-05-20T10:59:08.433Z,20.80
2023-05-20T11:00:09.473Z,20.72
2023-05-20T11:01:08.431Z,20.62
2023-05-20T11:02:08.394Z,20.52
2023-05-20T11:03:08.483Z,20.47
2023-05-20T11:04:08.575Z,20.40
2023-05-20T11:05:08.392Z,20.32
2023-05-20T11:06:09.302Z,20.24
2023-05-20T11:07:08.335Z,20.14
2023-05-20T11:08:17.003Z,19.95
2023-05-20T11:09:09.794Z,19.82
2023-05-20T11:10:08.289Z,19.71
2023-05-20T11:11:08.311Z,19.67
2023-05-20T11:12:09.244Z,19.70
2023-05-20T11:13:08.313Z,19.70
2023-05-20T11:14:08.236Z,19.70
2023-05-20T11:15:08.290Z,19.77
2023-05-20T11:16:08.284Z,19.82
2023-05-20T11:17:09.250Z,19.89
2023-05-20T11:18:08.252Z,19.94
2023-05-20T11:19:08.221Z,19.95
2023-05-20T11:20:08.169Z,20.09
2023-05-20T11:21:08.133Z,20.36
2023-05-20T11:22:09.081Z,20.72
2023-05-20T11:23:08.135Z,20.75
2023-05-20T11:24:08.142Z,20.77
2023-05-20T11:25:08.117Z,21.11
2023-05-20T11:26:08.140Z,21.15
2023-05-20T11:27:08.070Z,21.11
2023-05-20T11:28:08.997Z,21.07
2023-05-20T11:29:08.074Z,21.54
2023-05-20T11:30:08.037Z,21.51
2023-05-20T11:31:08.002Z,21.77
2023-05-20T11:32:08.122Z,22.28
2023-05-20T11:33:08.088Z,22.25
2023-05-20T11:34:08.948Z,22.85
2023-05-20T11:35:07.974Z,22.69
2023-05-20T11:36:16.306Z,22.70
2023-05-20T11:37:09.458Z,22.60
2023-05-20T11:38:07.930Z,22.45
2023-05-20T11:39:08.857Z,22.17
2023-05-20T11:40:07.944Z,22.66
2023-05-20T11:41:07.913Z,22.38
2023-05-20T11:42:07.934Z,22.22
2023-05-20T11:43:07.903Z,22.22
2023-05-20T11:44:07.863Z,22.00
2023-05-20T11:45:08.781Z,21.82
2023-05-20T11:46:07.953Z,21.82
2023-05-20T11:47:07.800Z,21.61
2023-05-20T11:48:07.997Z,21.37
2023-05-20T11:49:07.815Z,21.11
2023-05-20T11:50:07.800Z,21.02
2023-05-20T11:51:08.720Z,22.25
2023-05-20T11:52:07.801Z,23.15
2023-05-20T11:53:07.738Z,23.18
2023-05-20T11:54:07.814Z,24.06
2023-05-20T11:55:07.781Z,24.65
2023-05-20T11:56:08.636Z,25.16
2023-05-20T11:57:07.720Z,24.81
2023-05-20T11:58:07.784Z,25.32
2023-05-20T11:59:07.711Z,25.54
2023-05-20T12:00:07.720Z,25.06
2023-05-20T12:01:21.020Z,24.98
2023-05-20T12:02:10.105Z,24.68
2023-05-20T12:03:07.695Z,24.42
2023-05-20T12:04:07.802Z,24.11
2023-05-20T12:05:07.681Z,23.80
2023-05-20T12:06:07.599Z,23.55
2023-05-20T12:07:07.559Z,24.08
2023-05-20T12:08:08.517Z,24.77
2023-05-20T12:09:07.525Z,25.35
2023-05-20T12:10:07.547Z,25.83
2023-05-20T12:11:07.588Z,26.16
2023-05-20T12:12:07.553Z,26.23
2023-05-20T12:13:07.531Z,26.52
2023-05-20T12:14:08.481Z,26.74
2023-05-20T12:15:07.480Z,26.56
2023-05-20T12:16:07.541Z,26.36
2023-05-20T12:17:07.512Z,26.10
2023-05-20T12:18:07.596Z,25.58
2023-05-20T12:19:08.425Z,25.47
2023-05-20T12:20:07.411Z,25.26
2023-05-20T12:21:07.378Z,25.59
2023-05-20T12:22:07.390Z,25.96
2023-05-20T12:23:07.388Z,26.13
2023-05-20T12:24:07.443Z,26.28
2023-05-20T12:25:08.292Z,26.36
2023-05-20T12:26:07.387Z,26.44
2023-05-20T12:27:07.332Z,26.48
2023-05-20T12:28:07.299Z,26.51
2023-05-20T12:29:08.461Z,26.71
2023-05-20T12:30:07.287Z,26.95
2023-05-20T12:31:08.240Z,26.66
2023-05-20T12:32:07.435Z,26.97
2023-05-20T12:33:07.373Z,27.12
2023-05-20T12:34:07.262Z,27.25
2023-05-20T12:35:07.320Z,27.49
2023-05-20T12:36:08.158Z,27.70
2023-05-20T12:37:07.210Z,27.26
2023-05-20T12:38:07.210Z,27.00
2023-05-20T12:39:07.231Z,26.58
2023-05-20T12:40:07.246Z,25.95
2023-05-20T12:41:08.069Z,25.51
2023-05-20T12:42:07.149Z,25.65
2023-05-20T12:43:07.131Z,26.03
2023-05-20T12:44:07.152Z,26.22
2023-05-20T12:45:07.142Z,26.07
2023-05-20T12:46:07.217Z,26.29
2023-05-20T12:47:08.092Z,26.38
2023-05-20T12:48:07.147Z,26.56
2023-05-20T12:49:07.038Z,26.74
2023-05-20T12:50:07.061Z,26.89
2023-05-20T12:51:07.028Z,27.17
2023-05-20T12:52:12.094Z,27.40
2023-05-20T12:53:08.493Z,27.54